Time;durP1;ratioP1;P1;durP2;ratioP2;P2;SDS_P1;SDS_P2;PMS_P1;PMS_P2;Temp;Humidity;BMP_temperature;BMP_pressure;BME280_temperature;BME280_humidity;BME280_pressure;Samples;Min_cycle;Max_cycle;Signal;HPM_P1;HPM_P2
2022/12/21 00:01:09;;;;;;;;;;;;;;;;;;1882125;28;7010;-64
2022/12/21 00:02:06;;;;;;;;;;;;;;;;;;1880809;28;7093;-64
2022/12/21 00:03:04;;;;;;;;;;;;;;;;;;1882262;28;7110;-63
2022/12/21 00:04:03;;;;;;;;;;;;;;;;;;1882354;28;7116;-64
2022/12/21 00:05:01;;;;;;;;;;;;;;;;;;1882318;28;7005;-62
2022/12/21 00:05:59;;;;;;;;;;;;;;;;;;1882197;28;7236;-63
2022/12/21 00:06:56;;;;;;;;;;;;;;;;;;1881807;28;7006;-62
2022/12/21 00:07:53;;;;;;;;;;;;;;;;;;1882274;28;7001;-64
2022/12/21 00:08:52;;;;;;;;;;;;;;;;;;1881914;28;7092;-63
2022/12/21 00:09:50;;;;;;;;;;;;;;;;;;1882212;28;7097;-64
2022/12/21 00:10:47;;;;;;;;;;;;;;;;;;1882106;28;8035;-63
2022/12/21 00:11:44;;;;;;;;;;;;;;;;;;1881840;28;7096;-64
2022/12/21 00:12:42;;;;;;;;;;;;;;;;;;1882097;28;7010;-64
2022/12/21 00:13:40;;;;;;;;;;;;;;;;;;1882019;28;7009;-64
2022/12/21 00:14:37;;;;;;;;;;;;;;;;;;1882309;28;8051;-65
2022/12/21 00:15:35;;;;;;;;;;;;;;;;;;1882356;28;7033;-64
2022/12/21 00:16:34;;;;;;;;;;;;;;;;;;1882608;28;7147;-63
2022/12/21 00:17:31;;;;;;;;;;;;;;;;;;1881322;28;7009;-65
2022/12/21 00:18:33;;;;;;;;;;;;;;;;;;1882222;28;7029;-62
2022/12/21 00:19:30;;;;;;;;;;;;;;;;;;1881842;28;7093;-62
2022/12/21 00:20:27;;;;;;;;;;;;;;;;;;1885960;28;7009;-65
2022/12/21 00:21:26;;;;;;;;;;;;;;;;;;1882669;28;7121;-64
2022/12/21 00:22:24;;;;;;;;;;;;;;;;;;1882525;28;7010;-63
2022/12/21 00:23:21;;;;;;;;;;;;;;;;;;1880810;28;7355;-64
2022/12/21 00:24:18;;;;;;;;;;;;;;;;;;1882116;28;7010;-64
2022/12/21 00:25:16;;;;;;;;;;;;;;;;;;1882119;28;7026;-65
2022/12/21 00:26:15;;;;;;;;;;;;;;;;;;1882192;28;7152;-64
2022/12/21 00:27:13;;;;;;;;;;;;;;;;;;1882016;28;7093;-64
2022/12/21 00:28:10;;;;;;;;;;;;;;;;;;1875352;28;7249;-63
2022/12/21 00:29:07;;;;;;;;;;;;;;;;;;1875757;28;7092;-63
2022/12/21 00:30:05;;;;;;;;;;;;;;;;;;1875075;28;9335;-62
2022/12/21 00:31:10;;;;;;;;;;;;;;;;;;1875363;28;7204;-63
2022/12/21 00:32:07;;;;;;;;;;;;;;;;;;1883177;28;7021;-63
2022/12/21 00:33:05;;;;;;;;;;;;;;;;;;1883821;28;7018;-64
2022/12/21 00:34:02;;;;;;;;;;;;;;;;;;1883702;28;7117;-65
2022/12/21 00:35:00;;;;;;;;;;;;;;;;;;1882368;28;7022;-63
2022/12/21 00:35:58;;;;;;;;;;;;;;;;;;1882278;28;7025;-64
2022/12/21 00:36:57;;;;;;;;;;;;;;;;;;1883181;28;7050;-63
2022/12/21 00:37:54;;;;;;;;;;;;;;;;;;1882061;28;7005;-63
2022/12/21 00:38:52;;;;;;;;;;;;;;;;;;1883382;28;8120;-65
2022/12/21 00:39:49;;;;;;;;;;;;;;;;;;1883347;28;7200;-65
2022/12/21 00:40:55;;;;;;;;;;;;;;;;;;1883374;28;7109;-65
2022/12/21 00:41:52;;;;;;;;;;;;;;;;;;1882774;28;8070;-65
2022/12/21 00:42:49;;;;;;;;;;;;;;;;;;1883444;28;7043;-64
2022/12/21 00:43:47;;;;;;;;;;;;;;;;;;1883601;28;6998;-62
2022/12/21 00:44:45;;;;;;;;;;;;;;;;;;1882638;28;7226;-65
2022/12/21 00:45:42;;;;;;;;;;;;;;;;;;1883037;28;7037;-63
2022/12/21 00:46:40;;;;;;;;;;;;;;;;;;1882488;28;6994;-64
2022/12/21 00:47:37;;;;;;;;;;;;;;;;;;1883486;28;7010;-63
2022/12/21 00:48:35;;;;;;;;;;;;;;;;;;1883689;28;7089;-63
2022/12/21 00:49:34;;;;;;;;;;;;;;;;;;1883273;28;7010;-63
2022/12/21 00:50:32;;;;;;;;;;;;;;;;;;1883328;28;7070;-64
2022/12/21 00:51:30;;;;;;;;;;;;;;;;;;1883487;28;8024;-64
2022/12/21 00:52:28;;;;;;;;;;;;;;;;;;1883050;28;7043;-64
2022/12/21 00:53:25;;;;;;;;;;;;;;;;;;1882978;28;7033;-63
2022/12/21 00:54:22;;;;;;;;;;;;;;;;;;1881986;28;7005;-63
2022/12/21 00:55:20;;;;;;;;;;;;;;;;;;1883900;28;7010;-63
2022/12/21 00:56:17;;;;;;;;;;;;;;;;;;1882753;28;7010;-64
2022/12/21 00:57:15;;;;;;;;;;;;;;;;;;1883526;28;7010;-65
2022/12/21 00:58:12;;;;;;;;;;;;;;;;;;1883261;28;7121;-62
2022/12/21 00:59:09;;;;;;;;;;;;;;;;;;1883133;28;8039;-64
2022/12/21 01:00:08;;;;;;;;;;;;;;;;;;1883128;28;7009;-64
2022/12/21 01:01:08;;;;;;;;;;;;;;;;;;1883503;28;7006;-63
2022/12/21 01:02:05;;;;;;;;;;;;;;;;;;1883295;28;7142;-62
2022/12/21 01:03:03;;;;;;;;;;;;;;;;;;1883172;28;7143;-64
2022/12/21 01:04:02;;;;;;;;;;;;;;;;;;1883203;28;7014;-64
2022/12/21 01:05:01;;;;;;;;;;;;;;;;;;1883409;28;7043;-62
2022/12/21 01:05:59;;;;;;;;;;;;;;;;;;1883744;28;7305;-65
2022/12/21 01:06:56;;;;;;;;;;;;;;;;;;1883161;28;8079;-63
2022/12/21 01:07:53;;;;;;;;;;;;;;;;;;1883493;28;8099;-62
2022/12/21 01:08:51;;;;;;;;;;;;;;;;;;1883299;28;8123;-64
2022/12/21 01:09:49;;;;;;;;;;;;;;;;;;1882343;28;7097;-65
2022/12/21 01:10:46;;;;;;;;;;;;;;;;;;1882455;28;7081;-64
2022/12/21 01:11:43;;;;;;;;;;;;;;;;;;1883274;28;7093;-65
2022/12/21 01:12:41;;;;;;;;;;;;;;;;;;1882740;28;7089;-63
2022/12/21 01:13:39;;;;;;;;;;;;;;;;;;1883240;28;7082;-65
2022/12/21 01:14:36;;;;;;;;;;;;;;;;;;1883452;28;7096;-65
2022/12/21 01:15:33;;;;;;;;;;;;;;;;;;1883527;28;7010;-64
2022/12/21 01:16:32;;;;;;;;;;;;;;;;;;1883179;28;7014;-62
2022/12/21 01:17:30;;;;;;;;;;;;;;;;;;1883147;28;7018;-63
2022/12/21 01:18:27;;;;;;;;;;;;;;;;;;1883579;28;7897;-63
2022/12/21 01:19:25;;;;;;;;;;;;;;;;;;1882639;28;7018;-65
2022/12/21 01:20:22;;;;;;;;;;;;;;;;;;1882839;28;7120;-63
2022/12/21 01:21:19;;;;;;;;;;;;;;;;;;1883172;28;7085;-63
2022/12/21 01:22:17;;;;;;;;;;;;;;;;;;1883561;28;7132;-63
2022/12/21 01:23:15;;;;;;;;;;;;;;;;;;1882921;28;7014;-65
2022/12/21 01:24:12;;;;;;;;;;;;;;;;;;1883078;28;7046;-62
2022/12/21 01:25:10;;;;;;;;;;;;;;;;;;1881937;28;7031;-63
2022/12/21 01:26:07;;;;;;;;;;;;;;;;;;1882187;28;7188;-65
2022/12/21 01:27:04;;;;;;;;;;;;;;;;;;1882952;28;7304;-63
2022/12/21 01:28:03;;;;;;;;;;;;;;;;;;1883187;28;7153;-63
2022/12/21 01:29:00;;;;;;;;;;;;;;;;;;1883638;28;7320;-65
2022/12/21 01:29:57;;;;;;;;;;;;;;;;;;1881680;28;7326;-62
2022/12/21 01:30:58;;;;;;;;;;;;;;;;;;1882987;28;7030;-64
2022/12/21 01:31:56;;;;;;;;;;;;;;;;;;1881833;28;8417;-64
2022/12/21 01:32:53;;;;;;;;;;;;;;;;;;1882922;28;7096;-64
2022/12/21 01:33:50;;;;;;;;;;;;;;;;;;1882743;28;7142;-64
2022/12/21 01:34:48;;;;;;;;;;;;;;;;;;1882826;28;7209;-62
2022/12/21 01:35:46;;;;;;;;;;;;;;;;;;1882010;28;8071;-64
2022/12/21 01:36:43;;;;;;;;;;;;;;;;;;1883393;28;7092;-65
2022/12/21 01:37:40;;;;;;;;;;;;;;;;;;1882654;28;7046;-66
2022/12/21 01:38:40;;;;;;;;;;;;;;;;;;1882610;28;7010;-62
2022/12/21 01:39:37;;;;;;;;;;;;;;;;;;1882868;28;7006;-64
2022/12/21 01:40:35;;;;;;;;;;;;;;;;;;1882947;28;7385;-64
2022/12/21 01:41:32;;;;;;;;;;;;;;;;;;1882680;28;7305;-65
2022/12/21 01:42:29;;;;;;;;;;;;;;;;;;1883518;28;8019;-64
2022/12/21 01:43:45;;;;;;;;;;;;;;;;;;1882897;28;7047;-64
2022/12/21 01:44:51;;;;;;;;;;;;;;;;;;1883542;28;7305;-65
2022/12/21 01:45:51;;;;;;;;;;;;;;;;;;1883685;28;8059;-62
2022/12/21 01:46:49;;;;;;;;;;;;;;;;;;1883567;28;7242;-65
2022/12/21 01:47:50;;;;;;;;;;;;;;;;;;1882575;28;7006;-62
2022/12/21 01:48:52;;;;;;;;;;;;;;;;;;1882737;28;8031;-64
2022/12/21 01:49:54;;;;;;;;;;;;;;;;;;1883362;28;7010;-64
2022/12/21 01:51:05;;;;;;;;;;;;;;;;;;1882392;28;7002;-64
2022/12/21 01:52:07;;;;;;;;;;;;;;;;;;1882399;28;7131;-63
2022/12/21 01:53:09;;;;;;;;;;;;;;;;;;1881487;28;7118;-63
2022/12/21 01:54:14;;;;;;;;;;;;;;;;;;1882587;28;7046;-62
2022/12/21 01:55:11;;;;;;;;;;;;;;;;;;1882640;28;7014;-64
2022/12/21 01:56:17;;;;;;;;;;;;;;;;;;1882643;28;7198;-64
2022/12/21 01:57:15;;;;;;;;;;;;;;;;;;1882490;28;7046;-63
2022/12/21 01:58:14;;;;;;;;;;;;;;;;;;1882967;28;7305;-63
2022/12/21 01:59:16;;;;;;;;;;;;;;;;;;1883724;28;7006;-63
2022/12/21 02:00:14;;;;;;;;;;;;;;;;;;1882563;28;7095;-64
2022/12/21 02:01:11;;;;;;;;;;;;;;;;;;1882866;28;7317;-63
2022/12/21 02:02:12;;;;;;;;;;;;;;;;;;1882797;28;7006;-64
2022/12/21 02:03:16;;;;;;;;;;;;;;;;;;1881665;28;7940;-65
2022/12/21 02:04:14;;;;;;;;;;;;;;;;;;1882666;28;7010;-64
2022/12/21 02:05:17;;;;;;;;;;;;;;;;;;1882641;28;7977;-63
2022/12/21 02:06:41;;;;;;;;;;;;;;;;;;1882504;28;7129;-65
2022/12/21 02:07:40;;;;;;;;;;;;;;;;;;1874523;28;7124;-62
2022/12/21 02:08:39;;;;;;;;;;;;;;;;;;1882684;28;7009;-65
2022/12/21 02:09:36;;;;;;;;;;;;;;;;;;1882774;28;7113;-64
2022/12/21 02:10:35;;;;;;;;;;;;;;;;;;1883250;28;7010;-63
2022/12/21 02:11:32;;;;;;;;;;;;;;;;;;1883231;28;7021;-65
2022/12/21 02:12:31;;;;;;;;;;;;;;;;;;1882439;28;7046;-64
2022/12/21 02:13:28;;;;;;;;;;;;;;;;;;1881435;28;7120;-63
2022/12/21 02:14:29;;;;;;;;;;;;;;;;;;1882969;28;7014;-64
2022/12/21 02:15:39;;;;;;;;;;;;;;;;;;1882629;28;8071;-62
2022/12/21 02:16:50;;;;;;;;;;;;;;;;;;1882721;28;7114;-64
2022/12/21 02:18:02;;;;;;;;;;;;;;;;;;1881398;28;7133;-63
2022/12/21 02:19:05;;;;;;;;;;;;;;;;;;1882755;28;7010;-64
2022/12/21 02:20:21;;;;;;;;;;;;;;;;;;1882687;28;7137;-65
2022/12/21 02:21:27;;;;;;;;;;;;;;;;;;1881311;28;7101;-64
2022/12/21 02:22:24;;;;;;;;;;;;;;;;;;1883270;28;7021;-63
2022/12/21 02:23:22;;;;;;;;;;;;;;;;;;1882905;28;7026;-64
2022/12/21 02:24:37;;;;;;;;;;;;;;;;;;1882371;28;7092;-63
2022/12/21 02:25:38;;;;;;;;;;;;;;;;;;1880855;28;7010;-65
2022/12/21 02:26:50;;;;;;;;;;;;;;;;;;1874850;28;7010;-65
2022/12/21 02:28:07;;;;;;;;;;;;;;;;;;1875527;28;7031;-63
2022/12/21 02:29:14;;;;;;;;;;;;;;;;;;1882183;28;7097;-62
2022/12/21 02:30:17;;;;;;;;;;;;;;;;;;1874352;28;7043;-64
2022/12/21 02:31:53;;;;;;;;;;;;;;;;;;1873603;28;7006;-65
2022/12/21 02:33:02;;;;;;;;;;;;;;;;;;1865194;29;7002;-64
2022/12/21 02:34:02;;;;;;;;;;;;;;;;;;1862955;28;7121;-62
2022/12/21 02:35:12;;;;;;;;;;;;;;;;;;1874704;28;7169;-64
2022/12/21 02:36:09;;;;;;;;;;;;;;;;;;1874520;28;7093;-65
2022/12/21 02:37:09;;;;;;;;;;;;;;;;;;1869788;28;7093;-63
2022/12/21 02:38:20;;;;;;;;;;;;;;;;;;1866887;29;8144;-64
2022/12/21 02:39:32;;;;;;;;;;;;;;;;;;1882677;28;7013;-65
2022/12/21 02:40:38;;;;;;;;;;;;;;;;;;1881329;28;7009;-64
2022/12/21 02:41:48;;;;;;;;;;;;;;;;;;1883296;28;7018;-64
2022/12/21 02:44:27;;;;;;;;;;;;;;;;;;1882252;28;7010;-63
2022/12/21 02:45:41;;;;;;;;;;;;;;;;;;1882266;28;7009;-63
2022/12/21 02:47:08;;;;;;;;;;;;;;;;;;1880865;28;7046;-62
2022/12/21 02:48:14;;;;;;;;;;;;;;;;;;1877760;28;7910;-64
2022/12/21 02:49:20;;;;;;;;;;;;;;;;;;1881906;28;7109;-62
2022/12/21 02:50:25;;;;;;;;;;;;;;;;;;1881139;28;7010;-65
2022/12/21 02:51:30;;;;;;;;;;;;;;;;;;1882539;28;7013;-62
2022/12/21 02:52:46;;;;;;;;;;;;;;;;;;1881322;28;7133;-64
2022/12/21 02:53:44;;;;;;;;;;;;;;;;;;1882630;28;7395;-63
2022/12/21 02:54:44;;;;;;;;;;;;;;;;;;1881636;28;7124;-63
2022/12/21 02:55:43;;;;;;;;;;;;;;;;;;1882505;28;7096;-63
2022/12/21 02:56:41;;;;;;;;;;;;;;;;;;1882659;28;7096;-64
2022/12/21 02:57:41;;;;;;;;;;;;;;;;;;1882021;28;7006;-65
2022/12/21 02:58:38;;;;;;;;;;;;;;;;;;1881606;28;8018;-63
2022/12/21 02:59:40;;;;;;;;;;;;;;;;;;1881704;28;7329;-64
2022/12/21 03:00:47;;;;;;;;;;;;;;;;;;1882696;28;7018;-63
2022/12/21 03:02:03;;;;;;;;;;;;;;;;;;1882223;28;7027;-64
2022/12/21 03:04:33;;;;;;;;;;;;;;;;;;1882737;28;7128;-62
2022/12/21 03:05:53;;;;;;;;;;;;;;;;;;1882669;28;7002;-64
2022/12/21 03:07:02;;;;;;;;;;;;;;;;;;1872900;28;7082;-63
2022/12/21 03:08:02;;;;;;;;;;;;;;;;;;1880809;28;7013;-65
2022/12/21 03:09:06;;;;;;;;;;;;;;;;;;1882308;28;7010;-64
2022/12/21 03:10:16;;;;;;;;;;;;;;;;;;1882508;28;7325;-65
2022/12/21 03:11:13;;;;;;;;;;;;;;;;;;1882080;28;7005;-62
2022/12/21 03:12:34;;;;;;;;;;;;;;;;;;1882307;28;7293;-64
2022/12/21 03:13:41;;;;;;;;;;;;;;;;;;1868519;28;8023;-63
2022/12/21 03:14:53;;;;;;;;;;;;;;;;;;1882190;28;8004;-63
2022/12/21 03:15:59;;;;;;;;;;;;;;;;;;1882294;28;7006;-62
2022/12/21 03:17:07;;;;;;;;;;;;;;;;;;1882103;28;7104;-65
2022/12/21 03:18:14;;;;;;;;;;;;;;;;;;1880981;28;7140;-63
2022/12/21 03:19:26;;;;;;;;;;;;;;;;;;1882836;28;7112;-63
2022/12/21 03:20:36;;;;;;;;;;;;;;;;;;1882273;28;7109;-64
2022/12/21 03:21:47;;;;;;;;;;;;;;;;;;1882303;28;7161;-63
2022/12/21 03:22:47;;;;;;;;;;;;;;;;;;1881129;28;7010;-65
2022/12/21 03:23:57;;;;;;;;;;;;;;;;;;1881998;28;7097;-62
2022/12/21 03:25:00;;;;;;;;;;;;;;;;;;1882314;28;7006;-64
2022/12/21 03:26:01;;;;;;;;;;;;;;;;;;1874487;28;7042;-65
2022/12/21 03:27:18;;;;;;;;;;;;;;;;;;1874709;28;7148;-65
2022/12/21 03:28:21;;;;;;;;;;;;;;;;;;1882018;28;7022;-65
2022/12/21 03:29:24;;;;;;;;;;;;;;;;;;1881563;28;7324;-65
2022/12/21 03:30:26;;;;;;;;;;;;;;;;;;1881839;28;7120;-66
2022/12/21 03:31:28;;;;;;;;;;;;;;;;;;1882197;28;7129;-64
2022/12/21 03:32:40;;;;;;;;;;;;;;;;;;1881312;28;7010;-65
2022/12/21 03:33:42;;;;;;;;;;;;;;;;;;1882185;28;7010;-65
2022/12/21 03:34:43;;;;;;;;;;;;;;;;;;1882553;28;7108;-65
2022/12/21 03:35:45;;;;;;;;;;;;;;;;;;1881135;28;7006;-63
2022/12/21 03:36:47;;;;;;;;;;;;;;;;;;1881937;28;7037;-64
2022/12/21 03:37:47;;;;;;;;;;;;;;;;;;1881670;28;7009;-64
2022/12/21 03:38:57;;;;;;;;;;;;;;;;;;1873617;28;7189;-64
2022/12/21 03:40:18;;;;;;;;;;;;;;;;;;1874965;28;7089;-66
2022/12/21 03:41:23;;;;;;;;;;;;;;;;;;1879317;28;7002;-64
2022/12/21 03:42:27;;;;;;;;;;;;;;;;;;1880830;28;7118;-63
2022/12/21 03:43:35;;;;;;;;;;;;;;;;;;1881942;28;8099;-63
2022/12/21 03:44:37;;;;;;;;;;;;;;;;;;1882016;28;7034;-64
2022/12/21 03:45:48;;;;;;;;;;;;;;;;;;1873130;28;7093;-64
2022/12/21 03:46:54;;;;;;;;;;;;;;;;;;1874877;28;8378;-64
2022/12/21 03:48:12;;;;;;;;;;;;;;;;;;1882597;28;8027;-64
2022/12/21 03:49:13;;;;;;;;;;;;;;;;;;1881653;28;7029;-63
2022/12/21 03:50:14;;;;;;;;;;;;;;;;;;1882010;28;7655;-64
2022/12/21 03:51:18;;;;;;;;;;;;;;;;;;1881939;28;8111;-65
2022/12/21 03:52:20;;;;;;;;;;;;;;;;;;1882512;28;7899;-64
2022/12/21 03:53:36;;;;;;;;;;;;;;;;;;1882285;28;7290;-65
2022/12/21 03:54:34;;;;;;;;;;;;;;;;;;1881450;28;7089;-64
2022/12/21 03:55:38;;;;;;;;;;;;;;;;;;1882388;28;7026;-65
2022/12/21 03:56:38;;;;;;;;;;;;;;;;;;1881470;28;7109;-63
2022/12/21 03:57:37;;;;;;;;;;;;;;;;;;1882062;28;7030;-64
2022/12/21 03:58:36;;;;;;;;;;;;;;;;;;1881885;28;7156;-65
2022/12/21 03:59:37;;;;;;;;;;;;;;;;;;1881960;28;7014;-63
2022/12/21 04:00:44;;;;;;;;;;;;;;;;;;1874330;28;7128;-64
2022/12/21 04:02:00;;;;;;;;;;;;;;;;;;1874153;28;7042;-64
2022/12/21 04:03:09;;;;;;;;;;;;;;;;;;1881792;28;7097;-64
2022/12/21 04:04:15;;;;;;;;;;;;;;;;;;1881114;28;7010;-63
2022/12/21 04:05:26;;;;;;;;;;;;;;;;;;1881549;28;7065;-64
2022/12/21 04:06:28;;;;;;;;;;;;;;;;;;1881690;28;7134;-63
2022/12/21 04:07:27;;;;;;;;;;;;;;;;;;1881587;28;7021;-63
2022/12/21 04:08:25;;;;;;;;;;;;;;;;;;1882381;28;7096;-65
2022/12/21 04:09:22;;;;;;;;;;;;;;;;;;1880521;28;7248;-64
2022/12/21 04:10:22;;;;;;;;;;;;;;;;;;1881121;28;7120;-63
2022/12/21 04:12:36;;;;;;;;;;;;;;;;;;1882328;28;7112;-63
2022/12/21 04:13:34;;;;;;;;;;;;;;;;;;1882419;28;7092;-64
2022/12/21 04:14:32;;;;;;;;;;;;;;;;;;1882386;28;7206;-63
2022/12/21 04:16:03;;;;;;;;;;;;;;;;;;1882178;28;7093;-62
2022/12/21 04:16:46;;;;;;;;;;;;;;;;;;1882621;28;7029;-62
2022/12/21 04:17:45;;;;;;;;;;;;;;;;;;1882026;28;7050;-64
2022/12/21 04:19:59;;;;;;;;;;;;;;;;;;1880664;28;7196;-64
2022/12/21 04:20:56;;;;;;;;;;;;;;;;;;1880808;28;7071;-62
2022/12/21 04:21:53;;;;;;;;;;;;;;;;;;1882384;28;7014;-63
2022/12/21 04:28:08;;;;;;;;;;;;;;;;;;1882146;28;7002;-63
2022/12/21 04:29:26;;;;;;;;;;;;;;;;;;1873777;29;7093;-64
2022/12/21 04:30:23;;;;;;;;;;;;;;;;;;1875832;28;7110;-63
2022/12/21 04:31:20;;;;;;;;;;;;;;;;;;1882226;28;7010;-62
2022/12/21 04:32:18;;;;;;;;;;;;;;;;;;1881576;28;7006;-64
2022/12/21 04:33:17;;;;;;;;;;;;;;;;;;1882281;28;7014;-64
2022/12/21 04:34:14;;;;;;;;;;;;;;;;;;1882006;28;7157;-64
2022/12/21 04:35:12;;;;;;;;;;;;;;;;;;1881483;28;7439;-64
2022/12/21 04:37:30;;;;;;;;;;;;;;;;;;1881761;28;7035;-65
2022/12/21 04:38:30;;;;;;;;;;;;;;;;;;1881797;28;7022;-63
2022/12/21 04:39:27;;;;;;;;;;;;;;;;;;1882080;28;7009;-65
2022/12/21 04:40:24;;;;;;;;;;;;;;;;;;1881892;28;8036;-63
2022/12/21 04:41:22;;;;;;;;;;;;;;;;;;1882196;28;7017;-63
2022/12/21 04:42:19;;;;;;;;;;;;;;;;;;1882435;28;7010;-65
2022/12/21 04:43:16;;;;;;;;;;;;;;;;;;1881958;28;7010;-64
2022/12/21 04:44:14;;;;;;;;;;;;;;;;;;1881715;28;7006;-62
2022/12/21 04:45:11;;;;;;;;;;;;;;;;;;1880676;28;7301;-64
2022/12/21 04:46:11;;;;;;;;;;;;;;;;;;1882004;28;7046;-65
2022/12/21 04:47:09;;;;;;;;;;;;;;;;;;1881475;28;8074;-63
2022/12/21 04:48:06;;;;;;;;;;;;;;;;;;1881974;28;7097;-65
2022/12/21 04:49:03;;;;;;;;;;;;;;;;;;1881895;28;7002;-62
2022/12/21 04:50:01;;;;;;;;;;;;;;;;;;1882242;28;8051;-65
2022/12/21 04:51:04;;;;;;;;;;;;;;;;;;1881537;28;7022;-64
2022/12/21 04:52:02;;;;;;;;;;;;;;;;;;1881315;28;7153;-62
2022/12/21 04:52:59;;;;;;;;;;;;;;;;;;1873582;29;7029;-63
2022/12/21 04:53:56;;;;;;;;;;;;;;;;;;1873944;29;7006;-64
2022/12/21 04:54:54;;;;;;;;;;;;;;;;;;1880727;28;7043;-62
2022/12/21 04:55:51;;;;;;;;;;;;;;;;;;1882332;28;7006;-64
2022/12/21 04:56:48;;;;;;;;;;;;;;;;;;1881032;28;7025;-64
2022/12/21 04:57:46;;;;;;;;;;;;;;;;;;1881666;28;7014;-64
2022/12/21 04:58:44;;;;;;;;;;;;;;;;;;1881710;28;7009;-62
2022/12/21 04:59:41;;;;;;;;;;;;;;;;;;1882151;28;8250;-63
2022/12/21 05:00:39;;;;;;;;;;;;;;;;;;1881804;28;8005;-63
2022/12/21 05:01:36;;;;;;;;;;;;;;;;;;1881962;28;7093;-63
2022/12/21 05:02:41;;;;;;;;;;;;;;;;;;1882077;28;8023;-64
2022/12/21 05:03:40;;;;;;;;;;;;;;;;;;1881459;28;7014;-62
2022/12/21 05:04:37;;;;;;;;;;;;;;;;;;1881760;28;7121;-64
2022/12/21 05:05:35;;;;;;;;;;;;;;;;;;1881476;28;7029;-62
2022/12/21 05:06:33;;;;;;;;;;;;;;;;;;1880898;28;7173;-64
2022/12/21 05:07:30;;;;;;;;;;;;;;;;;;1881824;28;7416;-65
2022/12/21 05:08:29;;;;;;;;;;;;;;;;;;1881774;28;7105;-65
2022/12/21 05:09:26;;;;;;;;;;;;;;;;;;1882205;28;7093;-63
2022/12/21 05:10:22;;;;;;;;;;;;;;;;;;1882264;28;7014;-63
2022/12/21 05:11:21;;;;;;;;;;;;;;;;;;1881785;28;7042;-64
2022/12/21 05:12:18;;;;;;;;;;;;;;;;;;1881289;28;7093;-63
2022/12/21 05:13:16;;;;;;;;;;;;;;;;;;1881652;28;7109;-65
2022/12/21 05:14:14;;;;;;;;;;;;;;;;;;1883103;28;7006;-64
2022/12/21 05:15:13;;;;;;;;;;;;;;;;;;1883125;28;7120;-64
2022/12/21 05:16:14;;;;;;;;;;;;;;;;;;1883208;28;8028;-63
2022/12/21 05:17:12;;;;;;;;;;;;;;;;;;1883713;28;7006;-63
2022/12/21 05:18:09;;;;;;;;;;;;;;;;;;1882991;28;7388;-63
2022/12/21 05:19:06;;;;;;;;;;;;;;;;;;1883001;28;7069;-63
2022/12/21 05:20:04;;;;;;;;;;;;;;;;;;1882842;28;8134;-64
2022/12/21 05:21:02;;;;;;;;;;;;;;;;;;1883250;28;7121;-62
2022/12/21 05:22:00;;;;;;;;;;;;;;;;;;1882887;28;7010;-64
2022/12/21 05:22:57;;;;;;;;;;;;;;;;;;1882774;28;7325;-63
2022/12/21 05:23:54;;;;;;;;;;;;;;;;;;1883504;28;7097;-63
2022/12/21 05:24:52;;;;;;;;;;;;;;;;;;1882575;28;7029;-64
2022/12/21 05:25:49;;;;;;;;;;;;;;;;;;1874485;28;7140;-62
2022/12/21 05:26:47;;;;;;;;;;;;;;;;;;1875488;28;7112;-65
2022/12/21 05:27:44;;;;;;;;;;;;;;;;;;1881849;28;7026;-64
2022/12/21 05:28:42;;;;;;;;;;;;;;;;;;1874779;28;7132;-63
2022/12/21 05:29:40;;;;;;;;;;;;;;;;;;1874169;28;7521;-64
2022/12/21 05:30:38;;;;;;;;;;;;;;;;;;1875282;28;7317;-63
2022/12/21 05:31:35;;;;;;;;;;;;;;;;;;1868628;29;7046;-64
2022/12/21 05:32:33;;;;;;;;;;;;;;;;;;1874998;28;7009;-64
2022/12/21 05:33:30;;;;;;;;;;;;;;;;;;1882055;28;7344;-64
2022/12/21 05:34:28;;;;;;;;;;;;;;;;;;1883391;28;8086;-64
2022/12/21 05:35:25;;;;;;;;;;;;;;;;;;1883115;28;7129;-65
2022/12/21 05:36:23;;;;;;;;;;;;;;;;;;1883673;28;7117;-64
2022/12/21 05:37:20;;;;;;;;;;;;;;;;;;1883690;28;7029;-65
2022/12/21 05:38:18;;;;;;;;;;;;;;;;;;1883343;28;7010;-63
2022/12/21 05:39:15;;;;;;;;;;;;;;;;;;1883458;28;7050;-65
2022/12/21 05:40:12;;;;;;;;;;;;;;;;;;1883644;28;7013;-64
2022/12/21 05:41:10;;;;;;;;;;;;;;;;;;1883343;28;7013;-63
2022/12/21 05:42:09;;;;;;;;;;;;;;;;;;1883564;28;8125;-63
2022/12/21 05:43:06;;;;;;;;;;;;;;;;;;1883660;28;7006;-63
2022/12/21 05:44:04;;;;;;;;;;;;;;;;;;1883990;28;7053;-63
2022/12/21 05:45:01;;;;;;;;;;;;;;;;;;1883433;28;7093;-64
2022/12/21 05:46:03;;;;;;;;;;;;;;;;;;1883256;28;7010;-63
2022/12/21 05:47:01;;;;;;;;;;;;;;;;;;1883516;28;7328;-63
2022/12/21 05:47:58;;;;;;;;;;;;;;;;;;1883435;28;8047;-62
2022/12/21 05:48:55;;;;;;;;;;;;;;;;;;1883122;28;7101;-65
2022/12/21 05:49:53;;;;;;;;;;;;;;;;;;1883275;28;8207;-62
2022/12/21 05:50:50;;;;;;;;;;;;;;;;;;1883643;28;7006;-64
2022/12/21 05:51:48;;;;;;;;;;;;;;;;;;1882896;28;7108;-64
2022/12/21 05:52:45;;;;;;;;;;;;;;;;;;1882854;28;8041;-63
2022/12/21 05:53:44;;;;;;;;;;;;;;;;;;1883237;28;7006;-63
2022/12/21 05:54:42;;;;;;;;;;;;;;;;;;1883395;28;7121;-63
2022/12/21 05:55:44;;;;;;;;;;;;;;;;;;1883288;28;7050;-63
2022/12/21 05:56:41;;;;;;;;;;;;;;;;;;1883039;28;7113;-63
2022/12/21 05:57:39;;;;;;;;;;;;;;;;;;1883685;28;8039;-64
2022/12/21 05:58:36;;;;;;;;;;;;;;;;;;1883362;28;8056;-64
2022/12/21 05:59:34;;;;;;;;;;;;;;;;;;1883004;28;7117;-63
2022/12/21 06:00:31;;;;;;;;;;;;;;;;;;1883158;28;7138;-65
2022/12/21 06:01:29;;;;;;;;;;;;;;;;;;1875172;28;7187;-64
2022/12/21 06:02:27;;;;;;;;;;;;;;;;;;1875112;28;7093;-63
2022/12/21 06:03:24;;;;;;;;;;;;;;;;;;1874511;28;8036;-64
2022/12/21 06:04:22;;;;;;;;;;;;;;;;;;1875735;28;7034;-64
2022/12/21 06:05:19;;;;;;;;;;;;;;;;;;1882148;28;7105;-63
2022/12/21 06:06:17;;;;;;;;;;;;;;;;;;1883203;28;7002;-65
2022/12/21 06:07:14;;;;;;;;;;;;;;;;;;1883229;28;7026;-65
2022/12/21 06:08:12;;;;;;;;;;;;;;;;;;1883153;28;7040;-64
2022/12/21 06:09:09;;;;;;;;;;;;;;;;;;1882921;28;7039;-64
2022/12/21 06:10:07;;;;;;;;;;;;;;;;;;1883345;28;7081;-65
2022/12/21 06:11:06;;;;;;;;;;;;;;;;;;1882391;28;7122;-63
2022/12/21 06:12:04;;;;;;;;;;;;;;;;;;1882806;28;7312;-64
2022/12/21 06:13:01;;;;;;;;;;;;;;;;;;1882318;28;7034;-65
2022/12/21 06:13:59;;;;;;;;;;;;;;;;;;1883077;28;7037;-64
2022/12/21 06:14:56;;;;;;;;;;;;;;;;;;1882992;28;8437;-64
2022/12/21 06:15:53;;;;;;;;;;;;;;;;;;1883231;28;7009;-62
2022/12/21 06:16:51;;;;;;;;;;;;;;;;;;1883608;28;7002;-64
2022/12/21 06:17:48;;;;;;;;;;;;;;;;;;1882852;28;7121;-64
2022/12/21 06:18:45;;;;;;;;;;;;;;;;;;1882810;28;7102;-63
2022/12/21 06:19:43;;;;;;;;;;;;;;;;;;1883225;28;7010;-65
2022/12/21 06:20:40;;;;;;;;;;;;;;;;;;1882789;28;7089;-62
2022/12/21 06:21:38;;;;;;;;;;;;;;;;;;1883072;28;7141;-64
2022/12/21 06:22:35;;;;;;;;;;;;;;;;;;1883183;28;7014;-64
2022/12/21 06:23:33;;;;;;;;;;;;;;;;;;1883355;28;7009;-64
2022/12/21 06:24:30;;;;;;;;;;;;;;;;;;1883328;28;7329;-65
2022/12/21 06:25:28;;;;;;;;;;;;;;;;;;1881886;28;7021;-64
2022/12/21 06:26:25;;;;;;;;;;;;;;;;;;1883182;28;7312;-64
2022/12/21 06:27:23;;;;;;;;;;;;;;;;;;1882903;28;7047;-65
2022/12/21 06:28:21;;;;;;;;;;;;;;;;;;1883618;28;7046;-64
2022/12/21 06:29:18;;;;;;;;;;;;;;;;;;1882652;28;8205;-63
2022/12/21 06:30:16;;;;;;;;;;;;;;;;;;1883597;28;7006;-65
2022/12/21 06:31:13;;;;;;;;;;;;;;;;;;1882982;28;7026;-63
2022/12/21 06:32:11;;;;;;;;;;;;;;;;;;1882904;28;7021;-63
2022/12/21 06:33:08;;;;;;;;;;;;;;;;;;1883351;28;7151;-63
2022/12/21 06:34:06;;;;;;;;;;;;;;;;;;1882936;28;7042;-63
2022/12/21 06:35:05;;;;;;;;;;;;;;;;;;1881914;28;7875;-65
2022/12/21 06:36:03;;;;;;;;;;;;;;;;;;1881669;28;7010;-64
2022/12/21 06:37:01;;;;;;;;;;;;;;;;;;1883113;28;7042;-63
2022/12/21 06:38:01;;;;;;;;;;;;;;;;;;1883251;28;7536;-64
2022/12/21 06:38:58;;;;;;;;;;;;;;;;;;1882824;28;7006;-64
2022/12/21 06:39:56;;;;;;;;;;;;;;;;;;1882773;28;7030;-63
2022/12/21 06:40:54;;;;;;;;;;;;;;;;;;1882793;28;8573;-62
2022/12/21 06:41:51;;;;;;;;;;;;;;;;;;1882943;28;8155;-64
2022/12/21 06:42:49;;;;;;;;;;;;;;;;;;1882613;28;7058;-63
2022/12/21 06:43:46;;;;;;;;;;;;;;;;;;1881888;28;8144;-63
2022/12/21 06:44:44;;;;;;;;;;;;;;;;;;1882603;28;7002;-64
2022/12/21 06:45:41;;;;;;;;;;;;;;;;;;1882538;28;7006;-63
2022/12/21 06:46:38;;;;;;;;;;;;;;;;;;1883605;28;7088;-64
2022/12/21 06:47:36;;;;;;;;;;;;;;;;;;1882976;28;7010;-63
2022/12/21 06:48:34;;;;;;;;;;;;;;;;;;1882607;28;7093;-64
2022/12/21 06:49:32;;;;;;;;;;;;;;;;;;1883259;28;8103;-63
2022/12/21 06:50:29;;;;;;;;;;;;;;;;;;1883049;28;7014;-63
2022/12/21 06:51:27;;;;;;;;;;;;;;;;;;1882667;28;8019;-63
2022/12/21 06:52:25;;;;;;;;;;;;;;;;;;1883190;28;7021;-62
2022/12/21 06:53:23;;;;;;;;;;;;;;;;;;1877272;28;7905;-65
2022/12/21 06:54:21;;;;;;;;;;;;;;;;;;1882345;28;7014;-63
2022/12/21 06:55:18;;;;;;;;;;;;;;;;;;1882724;28;7129;-62
2022/12/21 06:56:23;;;;;;;;;;;;;;;;;;1871951;28;7054;-64
2022/12/21 06:57:21;;;;;;;;;;;;;;;;;;1871502;28;7013;-64
2022/12/21 06:58:18;;;;;;;;;;;;;;;;;;1868519;29;7288;-63
2022/12/21 06:59:15;;;;;;;;;;;;;;;;;;1868380;29;7018;-63
2022/12/21 07:00:14;;;;;;;;;;;;;;;;;;1871572;28;7086;-65
2022/12/21 07:01:13;;;;;;;;;;;;;;;;;;1875535;28;7009;-64
2022/12/21 07:02:11;;;;;;;;;;;;;;;;;;1875497;28;7009;-65
2022/12/21 07:03:09;;;;;;;;;;;;;;;;;;1868505;28;7124;-64
2022/12/21 07:04:05;;;;;;;;;;;;;;;;;;1872682;28;7065;-62
2022/12/21 07:05:02;;;;;;;;;;;;;;;;;;1875512;28;7093;-64
2022/12/21 07:06:01;;;;;;;;;;;;;;;;;;1875331;28;7014;-64
2022/12/21 07:06:58;;;;;;;;;;;;;;;;;;1875774;28;7009;-62
2022/12/21 07:07:55;;;;;;;;;;;;;;;;;;1875259;28;7050;-62
2022/12/21 07:08:53;;;;;;;;;;;;;;;;;;1880683;28;7245;-63
2022/12/21 07:09:51;;;;;;;;;;;;;;;;;;1882156;28;7014;-62
2022/12/21 07:10:48;;;;;;;;;;;;;;;;;;1872656;28;7124;-63
2022/12/21 07:11:47;;;;;;;;;;;;;;;;;;1874685;28;7013;-63